sensor_id;sensor_type;location;lat;lon;timestamp;P1;durP1;ratioP1;P2;durP2;ratioP2
13303;SDS011;6720;51.958;4.540;2023-09-30T00:00:42;14.40;;;8.53;;
13303;SDS011;6720;51.958;4.540;2023-09-30T00:03:08;12.57;;;8.87;;
13303;SDS011;6720;51.958;4.540;2023-09-30T00:05:36;14.43;;;7.87;;
13303;SDS011;6720;51.958;4.540;2023-09-30T00:08:02;14.53;;;8.53;;
13303;SDS011;6720;51.958;4.540;2023-09-30T00:10:28;16.43;;;9.17;;
13303;SDS011;6720;51.958;4.540;2023-09-30T00:12:55;10.27;;;7.47;;
13303;SDS011;6720;51.958;4.540;2023-09-30T00:15:21;11.57;;;8.03;;
13303;SDS011;6720;51.958;4.540;2023-09-30T00:17:46;15.30;;;8.80;;
13303;SDS011;6720;51.958;4.540;2023-09-30T00:20:12;11.97;;;8.23;;
13303;SDS011;6720;51.958;4.540;2023-09-30T00:22:39;12.83;;;8.90;;
13303;SDS011;6720;51.958;4.540;2023-09-30T00:25:05;16.63;;;9.30;;
13303;SDS011;6720;51.958;4.540;2023-09-30T00:27:31;12.80;;;8.40;;
13303;SDS011;6720;51.958;4.540;2023-09-30T00:29:56;14.00;;;10.10;;
13303;SDS011;6720;51.958;4.540;2023-09-30T00:32:21;13.77;;;8.53;;
13303;SDS011;6720;51.958;4.540;2023-09-30T00:34:47;13.83;;;8.57;;
13303;SDS011;6720;51.958;4.540;2023-09-30T00:37:13;16.53;;;9.13;;
13303;SDS011;6720;51.958;4.540;2023-09-30T00:39:39;15.03;;;9.67;;
13303;SDS011;6720;51.958;4.540;2023-09-30T00:42:05;16.87;;;10.60;;
13303;SDS011;6720;51.958;4.540;2023-09-30T00:44:30;16.30;;;9.40;;
13303;SDS011;6720;51.958;4.540;2023-09-30T00:46:56;15.47;;;8.90;;
13303;SDS011;6720;51.958;4.540;2023-09-30T00:49:25;18.43;;;10.70;;
13303;SDS011;6720;51.958;4.540;2023-09-30T00:51:51;14.97;;;8.90;;
13303;SDS011;6720;51.958;4.540;2023-09-30T00:54:17;17.03;;;9.50;;
13303;SDS011;6720;51.958;4.540;2023-09-30T00:56:44;16.43;;;9.47;;
13303;SDS011;6720;51.958;4.540;2023-09-30T00:59:11;17.60;;;9.77;;
13303;SDS011;6720;51.958;4.540;2023-09-30T01:01:38;19.80;;;10.00;;
13303;SDS011;6720;51.958;4.540;2023-09-30T01:04:04;18.13;;;10.47;;
13303;SDS011;6720;51.958;4.540;2023-09-30T01:06:30;16.87;;;10.20;;
13303;SDS011;6720;51.958;4.540;2023-09-30T01:08:56;16.10;;;9.70;;
13303;SDS011;6720;51.958;4.540;2023-09-30T01:11:22;15.07;;;9.93;;
13303;SDS011;6720;51.958;4.540;2023-09-30T01:13:48;16.63;;;10.53;;
13303;SDS011;6720;51.958;4.540;2023-09-30T01:16:14;16.53;;;10.63;;
13303;SDS011;6720;51.958;4.540;2023-09-30T01:18:40;15.00;;;9.50;;
13303;SDS011;6720;51.958;4.540;2023-09-30T01:21:07;15.70;;;9.57;;
13303;SDS011;6720;51.958;4.540;2023-09-30T01:23:34;15.53;;;9.67;;
13303;SDS011;6720;51.958;4.540;2023-09-30T01:26:01;16.43;;;10.80;;
13303;SDS011;6720;51.958;4.540;2023-09-30T01:28:35;15.17;;;10.00;;
13303;SDS011;6720;51.958;4.540;2023-09-30T01:31:00;20.30;;;11.53;;
13303;SDS011;6720;51.958;4.540;2023-09-30T01:33:26;18.20;;;10.33;;
13303;SDS011;6720;51.958;4.540;2023-09-30T01:35:52;20.30;;;12.13;;
13303;SDS011;6720;51.958;4.540;2023-09-30T01:38:18;15.57;;;10.40;;
13303;SDS011;6720;51.958;4.540;2023-09-30T01:40:43;20.47;;;11.10;;
13303;SDS011;6720;51.958;4.540;2023-09-30T01:43:09;20.00;;;11.60;;
13303;SDS011;6720;51.958;4.540;2023-09-30T01:45:38;22.13;;;12.43;;
13303;SDS011;6720;51.958;4.540;2023-09-30T01:48:04;19.53;;;11.33;;
13303;SDS011;6720;51.958;4.540;2023-09-30T01:50:30;17.23;;;11.40;;
13303;SDS011;6720;51.958;4.540;2023-09-30T01:52:56;19.60;;;11.13;;
13303;SDS011;6720;51.958;4.540;2023-09-30T01:55:22;21.87;;;11.87;;
13303;SDS011;6720;51.958;4.540;2023-09-30T01:57:48;20.53;;;11.53;;
13303;SDS011;6720;51.958;4.540;2023-09-30T02:00:13;22.50;;;13.33;;
13303;SDS011;6720;51.958;4.540;2023-09-30T02:02:39;17.73;;;11.90;;
13303;SDS011;6720;51.958;4.540;2023-09-30T02:05:04;21.20;;;11.70;;
13303;SDS011;6720;51.958;4.540;2023-09-30T02:07:33;19.97;;;12.73;;
13303;SDS011;6720;51.958;4.540;2023-09-30T02:09:59;21.23;;;12.33;;
13303;SDS011;6720;51.958;4.540;2023-09-30T02:12:26;22.13;;;12.87;;
13303;SDS011;6720;51.958;4.540;2023-09-30T02:14:53;22.90;;;13.50;;
13303;SDS011;6720;51.958;4.540;2023-09-30T02:17:18;26.83;;;13.70;;
13303;SDS011;6720;51.958;4.540;2023-09-30T02:19:44;20.37;;;12.67;;
13303;SDS011;6720;51.958;4.540;2023-09-30T02:22:10;22.53;;;12.33;;
13303;SDS011;6720;51.958;4.540;2023-09-30T02:24:35;25.20;;;14.43;;
13303;SDS011;6720;51.958;4.540;2023-09-30T02:27:00;22.40;;;14.17;;
13303;SDS011;6720;51.958;4.540;2023-09-30T02:29:26;24.83;;;14.30;;
13303;SDS011;6720;51.958;4.540;2023-09-30T02:31:51;21.97;;;13.10;;
13303;SDS011;6720;51.958;4.540;2023-09-30T02:34:19;27.03;;;14.83;;
13303;SDS011;6720;51.958;4.540;2023-09-30T02:36:45;23.93;;;14.43;;
13303;SDS011;6720;51.958;4.540;2023-09-30T02:39:10;28.43;;;15.10;;
13303;SDS011;6720;51.958;4.540;2023-09-30T02:41:36;30.53;;;15.03;;
13303;SDS011;6720;51.958;4.540;2023-09-30T02:44:02;27.00;;;14.90;;
13303;SDS011;6720;51.958;4.540;2023-09-30T02:46:29;27.00;;;14.83;;
13303;SDS011;6720;51.958;4.540;2023-09-30T02:48:55;30.87;;;16.13;;
13303;SDS011;6720;51.958;4.540;2023-09-30T02:51:20;24.67;;;14.77;;
13303;SDS011;6720;51.958;4.540;2023-09-30T02:53:46;24.97;;;15.63;;
13303;SDS011;6720;51.958;4.540;2023-09-30T02:56:13;24.47;;;16.20;;
13303;SDS011;6720;51.958;4.540;2023-09-30T02:58:39;26.83;;;16.27;;
13303;SDS011;6720;51.958;4.540;2023-09-30T03:01:05;30.10;;;16.93;;
13303;SDS011;6720;51.958;4.540;2023-09-30T03:03:32;26.40;;;16.60;;
13303;SDS011;6720;51.958;4.540;2023-09-30T03:05:58;25.90;;;16.83;;
13303;SDS011;6720;51.958;4.540;2023-09-30T03:08:25;24.27;;;16.07;;
13303;SDS011;6720;51.958;4.540;2023-09-30T03:10:51;32.23;;;18.70;;
13303;SDS011;6720;51.958;4.540;2023-09-30T03:13:17;27.50;;;18.23;;
13303;SDS011;6720;51.958;4.540;2023-09-30T03:15:43;27.77;;;17.37;;
13303;SDS011;6720;51.958;4.540;2023-09-30T03:18:09;29.07;;;17.33;;
13303;SDS011;6720;51.958;4.540;2023-09-30T03:20:35;31.30;;;17.63;;
13303;SDS011;6720;51.958;4.540;2023-09-30T03:23:05;36.87;;;18.57;;
13303;SDS011;6720;51.958;4.540;2023-09-30T03:25:30;30.83;;;17.03;;
13303;SDS011;6720;51.958;4.540;2023-09-30T03:27:56;35.83;;;18.67;;
13303;SDS011;6720;51.958;4.540;2023-09-30T03:30:22;29.37;;;17.60;;
13303;SDS011;6720;51.958;4.540;2023-09-30T03:32:47;40.23;;;18.83;;
13303;SDS011;6720;51.958;4.540;2023-09-30T03:35:13;34.73;;;18.60;;
13303;SDS011;6720;51.958;4.540;2023-09-30T03:37:46;31.57;;;20.37;;
13303;SDS011;6720;51.958;4.540;2023-09-30T03:40:12;37.27;;;19.53;;
13303;SDS011;6720;51.958;4.540;2023-09-30T03:42:52;33.13;;;19.53;;
13303;SDS011;6720;51.958;4.540;2023-09-30T03:45:19;35.00;;;23.20;;
13303;SDS011;6720;51.958;4.540;2023-09-30T03:47:44;36.23;;;19.63;;
13303;SDS011;6720;51.958;4.540;2023-09-30T03:50:12;32.30;;;20.03;;
13303;SDS011;6720;51.958;4.540;2023-09-30T03:52:39;41.03;;;21.90;;
13303;SDS011;6720;51.958;4.540;2023-09-30T03:55:09;36.43;;;21.50;;
13303;SDS011;6720;51.958;4.540;2023-09-30T03:57:36;35.40;;;21.27;;
13303;SDS011;6720;51.958;4.540;2023-09-30T04:00:02;40.20;;;23.17;;
13303;SDS011;6720;51.958;4.540;2023-09-30T04:02:32;41.63;;;22.50;;
13303;SDS011;6720;51.958;4.540;2023-09-30T04:04:59;41.37;;;22.53;;
13303;SDS011;6720;51.958;4.540;2023-09-30T04:07:28;39.97;;;22.70;;
13303;SDS011;6720;51.958;4.540;2023-09-30T04:09:54;41.00;;;22.80;;
13303;SDS011;6720;51.958;4.540;2023-09-30T04:12:20;36.37;;;22.07;;
13303;SDS011;6720;51.958;4.540;2023-09-30T04:14:48;43.23;;;21.70;;
13303;SDS011;6720;51.958;4.540;2023-09-30T04:17:13;46.73;;;23.30;;
13303;SDS011;6720;51.958;4.540;2023-09-30T04:19:39;40.10;;;24.17;;
13303;SDS011;6720;51.958;4.540;2023-09-30T04:22:04;44.53;;;24.57;;
13303;SDS011;6720;51.958;4.540;2023-09-30T04:24:30;45.17;;;27.53;;
13303;SDS011;6720;51.958;4.540;2023-09-30T04:26:55;41.70;;;23.83;;
13303;SDS011;6720;51.958;4.540;2023-09-30T04:29:27;41.83;;;24.90;;
13303;SDS011;6720;51.958;4.540;2023-09-30T04:31:52;41.40;;;23.80;;
13303;SDS011;6720;51.958;4.540;2023-09-30T04:34:18;42.50;;;24.37;;
13303;SDS011;6720;51.958;4.540;2023-09-30T04:36:44;45.63;;;26.27;;
13303;SDS011;6720;51.958;4.540;2023-09-30T04:39:10;40.63;;;25.40;;
13303;SDS011;6720;51.958;4.540;2023-09-30T04:41:37;48.13;;;25.00;;
13303;SDS011;6720;51.958;4.540;2023-09-30T04:44:06;44.00;;;25.47;;
13303;SDS011;6720;51.958;4.540;2023-09-30T04:46:32;41.13;;;25.07;;
13303;SDS011;6720;51.958;4.540;2023-09-30T04:48:57;49.90;;;26.30;;
13303;SDS011;6720;51.958;4.540;2023-09-30T04:51:22;47.77;;;26.97;;
13303;SDS011;6720;51.958;4.540;2023-09-30T04:53:50;50.47;;;28.07;;
13303;SDS011;6720;51.958;4.540;2023-09-30T04:56:16;44.93;;;26.43;;
13303;SDS011;6720;51.958;4.540;2023-09-30T04:58:41;47.60;;;26.90;;
13303;SDS011;6720;51.958;4.540;2023-09-30T05:01:07;46.93;;;26.93;;
13303;SDS011;6720;51.958;4.540;2023-09-30T05:03:33;49.00;;;29.40;;
13303;SDS011;6720;51.958;4.540;2023-09-30T05:06:00;44.10;;;26.93;;
13303;SDS011;6720;51.958;4.540;2023-09-30T05:08:25;42.07;;;26.80;;
13303;SDS011;6720;51.958;4.540;2023-09-30T05:10:51;48.73;;;27.03;;
13303;SDS011;6720;51.958;4.540;2023-09-30T05:13:20;41.67;;;26.93;;
13303;SDS011;6720;51.958;4.540;2023-09-30T05:15:45;46.23;;;26.03;;
13303;SDS011;6720;51.958;4.540;2023-09-30T05:18:14;42.67;;;26.27;;
13303;SDS011;6720;51.958;4.540;2023-09-30T05:20:39;54.30;;;27.53;;
13303;SDS011;6720;51.958;4.540;2023-09-30T05:23:06;45.03;;;26.03;;
13303;SDS011;6720;51.958;4.540;2023-09-30T05:25:38;51.40;;;27.20;;
13303;SDS011;6720;51.958;4.540;2023-09-30T05:28:05;51.43;;;26.63;;
13303;SDS011;6720;51.958;4.540;2023-09-30T05:30:32;48.87;;;29.47;;
13303;SDS011;6720;51.958;4.540;2023-09-30T05:32:58;44.43;;;26.53;;
13303;SDS011;6720;51.958;4.540;2023-09-30T05:35:24;49.83;;;29.77;;
13303;SDS011;6720;51.958;4.540;2023-09-30T05:37:49;46.73;;;27.47;;
13303;SDS011;6720;51.958;4.540;2023-09-30T05:40:18;44.93;;;27.73;;
13303;SDS011;6720;51.958;4.540;2023-09-30T05:42:58;44.40;;;26.87;;
13303;SDS011;6720;51.958;4.540;2023-09-30T05:45:24;51.23;;;28.33;;
13303;SDS011;6720;51.958;4.540;2023-09-30T05:47:51;51.27;;;27.37;;
13303;SDS011;6720;51.958;4.540;2023-09-30T05:50:18;46.83;;;27.23;;
13303;SDS011;6720;51.958;4.540;2023-09-30T05:52:49;45.73;;;26.70;;
13303;SDS011;6720;51.958;4.540;2023-09-30T05:55:16;57.30;;;26.50;;
13303;SDS011;6720;51.958;4.540;2023-09-30T05:57:50;53.43;;;28.20;;
13303;SDS011;6720;51.958;4.540;2023-09-30T06:00:17;55.50;;;28.33;;
13303;SDS011;6720;51.958;4.540;2023-09-30T06:03:04;51.33;;;28.03;;
13303;SDS011;6720;51.958;4.540;2023-09-30T06:06:03;49.97;;;27.93;;
13303;SDS011;6720;51.958;4.540;2023-09-30T06:08:37;57.57;;;30.93;;
13303;SDS011;6720;51.958;4.540;2023-09-30T06:11:03;59.97;;;32.20;;
13303;SDS011;6720;51.958;4.540;2023-09-30T06:13:28;60.70;;;31.07;;
13303;SDS011;6720;51.958;4.540;2023-09-30T06:15:56;56.37;;;31.20;;
13303;SDS011;6720;51.958;4.540;2023-09-30T06:18:22;80.60;;;42.70;;
13303;SDS011;6720;51.958;4.540;2023-09-30T06:20:47;84.43;;;43.07;;
13303;SDS011;6720;51.958;4.540;2023-09-30T06:23:14;64.13;;;36.13;;
13303;SDS011;6720;51.958;4.540;2023-09-30T06:25:39;92.00;;;54.33;;
13303;SDS011;6720;51.958;4.540;2023-09-30T06:28:05;81.17;;;44.37;;
13303;SDS011;6720;51.958;4.540;2023-09-30T06:30:32;74.90;;;46.10;;
13303;SDS011;6720;51.958;4.540;2023-09-30T06:32:59;80.10;;;47.00;;
13303;SDS011;6720;51.958;4.540;2023-09-30T06:35:29;100.83;;;59.37;;
13303;SDS011;6720;51.958;4.540;2023-09-30T06:38:02;75.60;;;41.37;;
13303;SDS011;6720;51.958;4.540;2023-09-30T06:40:28;79.37;;;42.83;;
13303;SDS011;6720;51.958;4.540;2023-09-30T06:42:53;75.40;;;45.57;;
13303;SDS011;6720;51.958;4.540;2023-09-30T06:45:19;71.43;;;42.20;;
13303;SDS011;6720;51.958;4.540;2023-09-30T06:47:47;75.40;;;44.97;;
13303;SDS011;6720;51.958;4.540;2023-09-30T06:50:13;70.20;;;44.20;;
13303;SDS011;6720;51.958;4.540;2023-09-30T06:52:41;87.80;;;59.40;;
13303;SDS011;6720;51.958;4.540;2023-09-30T06:55:10;89.63;;;62.80;;
13303;SDS011;6720;51.958;4.540;2023-09-30T06:57:39;76.93;;;44.10;;
13303;SDS011;6720;51.958;4.540;2023-09-30T07:00:07;65.87;;;43.00;;
13303;SDS011;6720;51.958;4.540;2023-09-30T07:02:35;76.10;;;48.67;;
13303;SDS011;6720;51.958;4.540;2023-09-30T07:05:10;85.27;;;57.23;;
13303;SDS011;6720;51.958;4.540;2023-09-30T07:07:36;66.30;;;43.20;;
13303;SDS011;6720;51.958;4.540;2023-09-30T07:10:02;63.07;;;43.60;;
13303;SDS011;6720;51.958;4.540;2023-09-30T07:12:29;58.10;;;38.80;;
13303;SDS011;6720;51.958;4.540;2023-09-30T07:14:56;61.87;;;39.67;;
13303;SDS011;6720;51.958;4.540;2023-09-30T07:17:22;58.63;;;43.67;;
13303;SDS011;6720;51.958;4.540;2023-09-30T07:19:48;54.50;;;37.87;;
13303;SDS011;6720;51.958;4.540;2023-09-30T07:22:13;51.87;;;34.70;;
13303;SDS011;6720;51.958;4.540;2023-09-30T07:24:40;43.30;;;33.10;;
13303;SDS011;6720;51.958;4.540;2023-09-30T07:27:06;48.77;;;36.83;;
13303;SDS011;6720;51.958;4.540;2023-09-30T07:29:31;56.27;;;42.70;;
13303;SDS011;6720;51.958;4.540;2023-09-30T07:31:57;37.03;;;29.97;;
13303;SDS011;6720;51.958;4.540;2023-09-30T07:34:22;38.70;;;28.63;;
13303;SDS011;6720;51.958;4.540;2023-09-30T07:36:48;37.00;;;29.03;;
13303;SDS011;6720;51.958;4.540;2023-09-30T07:39:13;36.67;;;29.13;;
13303;SDS011;6720;51.958;4.540;2023-09-30T07:41:39;45.00;;;29.53;;
13303;SDS011;6720;51.958;4.540;2023-09-30T07:44:04;40.43;;;30.43;;
13303;SDS011;6720;51.958;4.540;2023-09-30T07:46:31;39.73;;;29.50;;
13303;SDS011;6720;51.958;4.540;2023-09-30T07:48:57;42.17;;;31.57;;
13303;SDS011;6720;51.958;4.540;2023-09-30T07:51:25;43.57;;;32.17;;
13303;SDS011;6720;51.958;4.540;2023-09-30T07:53:50;36.10;;;27.97;;
13303;SDS011;6720;51.958;4.540;2023-09-30T07:56:15;39.57;;;27.90;;
13303;SDS011;6720;51.958;4.540;2023-09-30T07:58:41;40.63;;;28.37;;
13303;SDS011;6720;51.958;4.540;2023-09-30T08:01:07;37.60;;;26.60;;
13303;SDS011;6720;51.958;4.540;2023-09-30T08:03:33;37.53;;;27.37;;
13303;SDS011;6720;51.958;4.540;2023-09-30T08:05:59;32.60;;;25.23;;
13303;SDS011;6720;51.958;4.540;2023-09-30T08:08:25;34.30;;;24.83;;
13303;SDS011;6720;51.958;4.540;2023-09-30T08:10:50;32.30;;;26.30;;
13303;SDS011;6720;51.958;4.540;2023-09-30T08:13:20;29.20;;;24.23;;
13303;SDS011;6720;51.958;4.540;2023-09-30T08:15:47;30.53;;;22.50;;
13303;SDS011;6720;51.958;4.540;2023-09-30T08:18:13;29.80;;;21.03;;
13303;SDS011;6720;51.958;4.540;2023-09-30T08:20:38;24.00;;;19.93;;
13303;SDS011;6720;51.958;4.540;2023-09-30T08:23:04;26.60;;;18.53;;
13303;SDS011;6720;51.958;4.540;2023-09-30T08:25:29;24.47;;;19.00;;
13303;SDS011;6720;51.958;4.540;2023-09-30T08:27:55;22.60;;;17.30;;
13303;SDS011;6720;51.958;4.540;2023-09-30T08:30:20;25.40;;;16.87;;
13303;SDS011;6720;51.958;4.540;2023-09-30T08:32:46;22.10;;;16.30;;
13303;SDS011;6720;51.958;4.540;2023-09-30T08:35:11;20.13;;;15.60;;
13303;SDS011;6720;51.958;4.540;2023-09-30T08:37:39;21.90;;;15.00;;
13303;SDS011;6720;51.958;4.540;2023-09-30T08:40:05;20.13;;;16.57;;
13303;SDS011;6720;51.958;4.540;2023-09-30T08:42:31;25.47;;;14.93;;
13303;SDS011;6720;51.958;4.540;2023-09-30T08:44:59;20.40;;;14.57;;
13303;SDS011;6720;51.958;4.540;2023-09-30T08:47:27;20.60;;;14.73;;
13303;SDS011;6720;51.958;4.540;2023-09-30T08:49:59;23.00;;;14.63;;
13303;SDS011;6720;51.958;4.540;2023-09-30T08:52:31;20.47;;;13.83;;
13303;SDS011;6720;51.958;4.540;2023-09-30T08:54:57;20.27;;;13.60;;
13303;SDS011;6720;51.958;4.540;2023-09-30T08:57:23;22.80;;;14.47;;
13303;SDS011;6720;51.958;4.540;2023-09-30T08:59:50;18.83;;;13.13;;
13303;SDS011;6720;51.958;4.540;2023-09-30T09:02:17;19.20;;;12.93;;
13303;SDS011;6720;51.958;4.540;2023-09-30T09:04:43;20.57;;;13.80;;
13303;SDS011;6720;51.958;4.540;2023-09-30T09:07:10;18.37;;;12.10;;
13303;SDS011;6720;51.958;4.540;2023-09-30T09:09:37;15.77;;;12.40;;
13303;SDS011;6720;51.958;4.540;2023-09-30T09:12:03;16.13;;;10.97;;
13303;SDS011;6720;51.958;4.540;2023-09-30T09:14:39;18.33;;;10.43;;
13303;SDS011;6720;51.958;4.540;2023-09-30T09:17:06;17.53;;;10.83;;
13303;SDS011;6720;51.958;4.540;2023-09-30T09:19:33;17.83;;;10.03;;
13303;SDS011;6720;51.958;4.540;2023-09-30T09:21:59;14.97;;;9.40;;
13303;SDS011;6720;51.958;4.540;2023-09-30T09:27:12;61.07;;;52.07;;
13303;SDS011;6720;51.958;4.540;2023-09-30T09:29:42;21.50;;;14.63;;
13303;SDS011;6720;51.958;4.540;2023-09-30T09:32:10;15.83;;;9.53;;
13303;SDS011;6720;51.958;4.540;2023-09-30T09:34:36;33.63;;;28.67;;
13303;SDS011;6720;51.958;4.540;2023-09-30T09:37:18;16.73;;;10.73;;
13303;SDS011;6720;51.958;4.540;2023-09-30T09:39:56;26.43;;;20.03;;
13303;SDS011;6720;51.958;4.540;2023-09-30T09:42:30;14.80;;;11.03;;
13303;SDS011;6720;51.958;4.540;2023-09-30T09:45:00;11.07;;;7.37;;
13303;SDS011;6720;51.958;4.540;2023-09-30T09:47:31;11.90;;;7.47;;
13303;SDS011;6720;51.958;4.540;2023-09-30T09:49:57;17.23;;;11.37;;
13303;SDS011;6720;51.958;4.540;2023-09-30T09:52:23;15.43;;;7.03;;
13303;SDS011;6720;51.958;4.540;2023-09-30T09:54:50;13.77;;;8.07;;
13303;SDS011;6720;51.958;4.540;2023-09-30T09:57:16;13.63;;;7.37;;
13303;SDS011;6720;51.958;4.540;2023-09-30T09:59:44;12.63;;;8.17;;
13303;SDS011;6720;51.958;4.540;2023-09-30T10:02:12;11.53;;;8.10;;
13303;SDS011;6720;51.958;4.540;2023-09-30T10:04:43;11.33;;;5.03;;
13303;SDS011;6720;51.958;4.540;2023-09-30T10:09:51;10.30;;;6.10;;
13303;SDS011;6720;51.958;4.540;2023-09-30T10:12:18;9.27;;;6.90;;
13303;SDS011;6720;51.958;4.540;2023-09-30T10:14:46;8.87;;;4.30;;
13303;SDS011;6720;51.958;4.540;2023-09-30T10:17:12;14.40;;;10.47;;
13303;SDS011;6720;51.958;4.540;2023-09-30T10:20:03;17.73;;;10.57;;
13303;SDS011;6720;51.958;4.540;2023-09-30T10:22:32;8.90;;;4.10;;
13303;SDS011;6720;51.958;4.540;2023-09-30T10:24:58;8.70;;;3.63;;
13303;SDS011;6720;51.958;4.540;2023-09-30T10:29:56;13.13;;;6.23;;
13303;SDS011;6720;51.958;4.540;2023-09-30T10:40:50;9.77;;;4.07;;
13303;SDS011;6720;51.958;4.540;2023-09-30T10:43:32;10.83;;;5.27;;
13303;SDS011;6720;51.958;4.540;2023-09-30T10:46:01;15.73;;;9.47;;
13303;SDS011;6720;51.958;4.540;2023-09-30T10:48:49;6.63;;;4.00;;
13303;SDS011;6720;51.958;4.540;2023-09-30T10:51:16;9.23;;;3.77;;
13303;SDS011;6720;51.958;4.540;2023-09-30T10:53:52;9.97;;;4.50;;
13303;SDS011;6720;51.958;4.540;2023-09-30T10:56:22;11.93;;;5.77;;
13303;SDS011;6720;51.958;4.540;2023-09-30T10:58:49;11.37;;;4.70;;
13303;SDS011;6720;51.958;4.540;2023-09-30T11:01:19;9.10;;;4.27;;
13303;SDS011;6720;51.958;4.540;2023-09-30T11:03:46;11.30;;;4.67;;
13303;SDS011;6720;51.958;4.540;2023-09-30T11:06:16;18.77;;;9.73;;
13303;SDS011;6720;51.958;4.540;2023-09-30T11:08:54;10.10;;;4.77;;
13303;SDS011;6720;51.958;4.540;2023-09-30T11:11:43;10.13;;;5.23;;
13303;SDS011;6720;51.958;4.540;2023-09-30T11:14:24;9.87;;;4.40;;
13303;SDS011;6720;51.958;4.540;2023-09-30T11:16:52;10.60;;;5.30;;
13303;SDS011;6720;51.958;4.540;2023-09-30T11:19:18;10.73;;;5.70;;
13303;SDS011;6720;51.958;4.540;2023-09-30T11:21:51;10.87;;;4.70;;
13303;SDS011;6720;51.958;4.540;2023-09-30T11:24:18;10.23;;;4.93;;
13303;SDS011;6720;51.958;4.540;2023-09-30T11:26:44;8.40;;;4.93;;
13303;SDS011;6720;51.958;4.540;2023-09-30T11:29:11;9.83;;;5.10;;
13303;SDS011;6720;51.958;4.540;2023-09-30T11:31:42;9.83;;;5.17;;
13303;SDS011;6720;51.958;4.540;2023-09-30T11:34:09;9.37;;;5.20;;
13303;SDS011;6720;51.958;4.540;2023-09-30T11:36:38;10.70;;;4.97;;
13303;SDS011;6720;51.958;4.540;2023-09-30T11:39:07;9.03;;;4.53;;
13303;SDS011;6720;51.958;4.540;2023-09-30T11:41:41;12.87;;;5.30;;
13303;SDS011;6720;51.958;4.540;2023-09-30T11:44:09;7.93;;;4.50;;
13303;SDS011;6720;51.958;4.540;2023-09-30T11:49:31;9.63;;;4.97;;
13303;SDS011;6720;51.958;4.540;2023-09-30T11:52:00;9.77;;;5.47;;
13303;SDS011;6720;51.958;4.540;2023-09-30T11:54:28;10.43;;;6.33;;
13303;SDS011;6720;51.958;4.540;2023-09-30T11:56:58;11.07;;;6.30;;
13303;SDS011;6720;51.958;4.540;2023-09-30T11:59:25;12.67;;;7.07;;
13303;SDS011;6720;51.958;4.540;2023-09-30T12:01:50;11.43;;;6.80;;
13303;SDS011;6720;51.958;4.540;2023-09-30T12:04:16;12.07;;;7.40;;
13303;SDS011;6720;51.958;4.540;2023-09-30T12:06:44;10.57;;;6.60;;
13303;SDS011;6720;51.958;4.540;2023-09-30T12:09:10;10.07;;;6.73;;
13303;SDS011;6720;51.958;4.540;2023-09-30T12:11:39;10.90;;;7.00;;
13303;SDS011;6720;51.958;4.540;2023-09-30T12:14:09;13.10;;;6.30;;
13303;SDS011;6720;51.958;4.540;2023-09-30T12:16:37;10.73;;;6.33;;
13303;SDS011;6720;51.958;4.540;2023-09-30T12:19:04;13.10;;;6.57;;
13303;SDS011;6720;51.958;4.540;2023-09-30T12:21:30;9.83;;;5.37;;
13303;SDS011;6720;51.958;4.540;2023-09-30T12:23:56;9.67;;;5.73;;
13303;SDS011;6720;51.958;4.540;2023-09-30T12:26:22;11.20;;;5.00;;
13303;SDS011;6720;51.958;4.540;2023-09-30T12:28:49;12.83;;;6.00;;
13303;SDS011;6720;51.958;4.540;2023-09-30T12:31:14;10.87;;;5.03;;
13303;SDS011;6720;51.958;4.540;2023-09-30T12:33:40;10.60;;;5.43;;
13303;SDS011;6720;51.958;4.540;2023-09-30T12:36:06;12.87;;;5.30;;
13303;SDS011;6720;51.958;4.540;2023-09-30T12:38:32;12.13;;;5.20;;
13303;SDS011;6720;51.958;4.540;2023-09-30T12:41:08;9.77;;;5.17;;
13303;SDS011;6720;51.958;4.540;2023-09-30T12:43:54;11.53;;;4.97;;
13303;SDS011;6720;51.958;4.540;2023-09-30T12:46:22;12.40;;;5.50;;
13303;SDS011;6720;51.958;4.540;2023-09-30T12:48:47;10.73;;;5.50;;
13303;SDS011;6720;51.958;4.540;2023-09-30T12:51:13;12.20;;;5.60;;
13303;SDS011;6720;51.958;4.540;2023-09-30T12:53:38;11.47;;;5.87;;
13303;SDS011;6720;51.958;4.540;2023-09-30T12:56:04;11.67;;;5.67;;
13303;SDS011;6720;51.958;4.540;2023-09-30T12:58:29;11.40;;;6.13;;
13303;SDS011;6720;51.958;4.540;2023-09-30T13:00:56;15.60;;;6.93;;
13303;SDS011;6720;51.958;4.540;2023-09-30T13:03:22;13.33;;;6.13;;
13303;SDS011;6720;51.958;4.540;2023-09-30T13:05:48;12.20;;;6.07;;
13303;SDS011;6720;51.958;4.540;2023-09-30T13:08:14;10.87;;;6.33;;
13303;SDS011;6720;51.958;4.540;2023-09-30T13:10:39;11.57;;;6.40;;
13303;SDS011;6720;51.958;4.540;2023-09-30T13:13:05;12.33;;;6.00;;
13303;SDS011;6720;51.958;4.540;2023-09-30T13:15:30;12.60;;;6.40;;
13303;SDS011;6720;51.958;4.540;2023-09-30T13:17:55;10.47;;;5.57;;
13303;SDS011;6720;51.958;4.540;2023-09-30T13:20:21;222.20;;;21.17;;
13303;SDS011;6720;51.958;4.540;2023-09-30T13:22:46;16.97;;;6.93;;
13303;SDS011;6720;51.958;4.540;2023-09-30T13:25:12;12.57;;;6.37;;
13303;SDS011;6720;51.958;4.540;2023-09-30T13:27:38;14.77;;;6.43;;
13303;SDS011;6720;51.958;4.540;2023-09-30T13:30:06;14.47;;;5.47;;
13303;SDS011;6720;51.958;4.540;2023-09-30T13:32:33;11.07;;;5.27;;
13303;SDS011;6720;51.958;4.540;2023-09-30T13:35:01;7.90;;;4.50;;
13303;SDS011;6720;51.958;4.540;2023-09-30T13:37:30;12.63;;;4.57;;
13303;SDS011;6720;51.958;4.540;2023-09-30T13:39:59;13.30;;;4.50;;
13303;SDS011;6720;51.958;4.540;2023-09-30T13:42:29;7.83;;;3.70;;
13303;SDS011;6720;51.958;4.540;2023-09-30T13:44:58;8.50;;;3.87;;
13303;SDS011;6720;51.958;4.540;2023-09-30T13:47:24;8.50;;;3.77;;
13303;SDS011;6720;51.958;4.540;2023-09-30T13:49:50;12.43;;;4.37;;
13303;SDS011;6720;51.958;4.540;2023-09-30T13:52:16;9.07;;;3.63;;
13303;SDS011;6720;51.958;4.540;2023-09-30T13:54:41;11.20;;;4.47;;
13303;SDS011;6720;51.958;4.540;2023-09-30T13:57:06;12.00;;;4.20;;
13303;SDS011;6720;51.958;4.540;2023-09-30T13:59:35;7.50;;;3.80;;
13303;SDS011;6720;51.958;4.540;2023-09-30T14:02:04;7.57;;;3.60;;
13303;SDS011;6720;51.958;4.540;2023-09-30T14:04:30;11.47;;;4.40;;
13303;SDS011;6720;51.958;4.540;2023-09-30T14:06:57;10.10;;;4.43;;
13303;SDS011;6720;51.958;4.540;2023-09-30T14:09:25;8.87;;;3.83;;
13303;SDS011;6720;51.958;4.540;2023-09-30T14:11:51;7.97;;;3.73;;
13303;SDS011;6720;51.958;4.540;2023-09-30T14:14:17;10.00;;;4.30;;
13303;SDS011;6720;51.958;4.540;2023-09-30T14:16:42;9.93;;;4.57;;
13303;SDS011;6720;51.958;4.540;2023-09-30T14:19:08;9.03;;;4.27;;
13303;SDS011;6720;51.958;4.540;2023-09-30T14:21:33;9.53;;;4.63;;
13303;SDS011;6720;51.958;4.540;2023-09-30T14:23:59;12.27;;;5.10;;
13303;SDS011;6720;51.958;4.540;2023-09-30T14:26:27;11.30;;;5.00;;
13303;SDS011;6720;51.958;4.540;2023-09-30T14:28:52;9.57;;;5.00;;
13303;SDS011;6720;51.958;4.540;2023-09-30T14:31:18;11.03;;;5.30;;
13303;SDS011;6720;51.958;4.540;2023-09-30T14:33:43;12.40;;;4.80;;
13303;SDS011;6720;51.958;4.540;2023-09-30T14:36:09;10.90;;;4.60;;
13303;SDS011;6720;51.958;4.540;2023-09-30T14:38:34;8.63;;;4.70;;
13303;SDS011;6720;51.958;4.540;2023-09-30T14:41:01;12.40;;;4.37;;
13303;SDS011;6720;51.958;4.540;2023-09-30T14:43:31;11.57;;;4.67;;
13303;SDS011;6720;51.958;4.540;2023-09-30T14:45:57;11.80;;;4.70;;
13303;SDS011;6720;51.958;4.540;2023-09-30T14:48:25;10.77;;;4.60;;
13303;SDS011;6720;51.958;4.540;2023-09-30T14:50:51;9.73;;;4.53;;
13303;SDS011;6720;51.958;4.540;2023-09-30T14:53:16;11.40;;;4.50;;
13303;SDS011;6720;51.958;4.540;2023-09-30T14:55:42;11.20;;;4.23;;
13303;SDS011;6720;51.958;4.540;2023-09-30T14:58:07;9.37;;;4.00;;
13303;SDS011;6720;51.958;4.540;2023-09-30T15:00:33;9.13;;;3.77;;